KOMA/OMA METAR and TAF weather

Enter ICAO airport designator
Station Type Date Time Source
KOMA METAR 2021/04/14 20:52 UTC NOAA

KOMA 142052Z 32017G22KT 10SM BKN047 BKN085 08/M03 A3024 RMK AO2 SLP245 T00831033 58009


Station Type Date Time Source
KOMA Decoded METAR 2021/04/14 20:52 UTC NOAA

OMAHA EPPLEY AIRFIELD, NE, United States (KOMA) 41-18N 095-54W 312M
Apr 14, 2021 - 04:52 PM EDT / 2021.04.14 2052 UTC
Wind: from the NW (320 degrees) at 20 MPH (17 KT) gusting to 25 MPH (22 KT):0
Visibility: 10 mile(s):0
Sky conditions: mostly cloudy
Temperature: 46.9 F (8.3 C)
Dew Point: 26.1 F (-3.3 C)
Relative Humidity: 43%
Pressure (altimeter): 30.24 in. Hg (1024 hPa)
Pressure tendency: 0.03 inches (0.9 hPa) lower than three hours ago
ob: KOMA 142052Z 32017G22KT 10SM BKN047 BKN085 08/M03 A3024 RMK AO2 SLP245 T00831033 58009
cycle: 21

Station Type Date Time Source
KOMA TAF 2021/04/14 18:36 UTC NOAA

TAF KOMA 141735Z 1418/1518 32013KT P6SM SCT035
FM142000 32013KT P6SM SCT080
FM150600 32005KT P6SM FEW120

Example: see airport list